sensor_id;sensor_type;location;lat;lon;timestamp;temperature;humidity
53314;DHT22;39202;51.468;7.146;2023-02-01T00:02:56;22.50;40.60
53314;DHT22;39202;51.468;7.146;2023-02-01T00:18:04;22.50;90.20
53314;DHT22;39202;51.468;7.146;2023-02-01T00:23:05;22.50;40.60
53314;DHT22;39202;51.468;7.146;2023-02-01T00:28:10;22.40;40.60
53314;DHT22;39202;51.468;7.146;2023-02-01T00:33:13;22.50;40.90
53314;DHT22;39202;51.468;7.146;2023-02-01T00:38:15;22.40;40.60
53314;DHT22;39202;51.468;7.146;2023-02-01T00:43:18;22.40;40.60
53314;DHT22;39202;51.468;7.146;2023-02-01T00:48:20;22.40;40.60
53314;DHT22;39202;51.468;7.146;2023-02-01T00:53:21;22.30;40.60
53314;DHT22;39202;51.468;7.146;2023-02-01T00:58:25;22.40;40.60
53314;DHT22;39202;51.468;7.146;2023-02-01T01:03:27;22.30;40.60
53314;DHT22;39202;51.468;7.146;2023-02-01T01:08:29;22.30;40.60
53314;DHT22;39202;51.468;7.146;2023-02-01T01:13:33;22.30;40.60
53314;DHT22;39202;51.468;7.146;2023-02-01T01:18:35;22.30;40.70
53314;DHT22;39202;51.468;7.146;2023-02-01T01:23:37;22.20;40.60
53314;DHT22;39202;51.468;7.146;2023-02-01T01:28:40;22.20;40.60
53314;DHT22;39202;51.468;7.146;2023-02-01T01:33:42;22.20;40.60
53314;DHT22;39202;51.468;7.146;2023-02-01T01:38:45;22.20;40.60
53314;DHT22;39202;51.468;7.146;2023-02-01T01:43:51;22.20;40.70
53314;DHT22;39202;51.468;7.146;2023-02-01T01:48:58;22.20;40.60
53314;DHT22;39202;51.468;7.146;2023-02-01T01:54:04;22.20;40.60
53314;DHT22;39202;51.468;7.146;2023-02-01T01:59:10;22.20;40.60
53314;DHT22;39202;51.468;7.146;2023-02-01T02:04:11;22.20;40.70
53314;DHT22;39202;51.468;7.146;2023-02-01T02:09:14;22.10;40.60
53314;DHT22;39202;51.468;7.146;2023-02-01T02:14:20;22.10;40.70
53314;DHT22;39202;51.468;7.146;2023-02-01T02:19:49;22.10;40.60
53314;DHT22;39202;51.468;7.146;2023-02-01T02:25:17;22.10;40.60
53314;DHT22;39202;51.468;7.146;2023-02-01T02:30:42;22.10;40.60
53314;DHT22;39202;51.468;7.146;2023-02-01T02:35:58;22.10;40.60
53314;DHT22;39202;51.468;7.146;2023-02-01T02:41:09;22.00;40.70
53314;DHT22;39202;51.468;7.146;2023-02-01T02:46:37;22.00;40.60
53314;DHT22;39202;51.468;7.146;2023-02-01T02:52:03;22.00;40.60
53314;DHT22;39202;51.468;7.146;2023-02-01T02:57:29;22.00;40.70
53314;DHT22;39202;51.468;7.146;2023-02-01T03:02:49;22.00;40.70
53314;DHT22;39202;51.468;7.146;2023-02-01T03:08:12;22.00;40.60
53314;DHT22;39202;51.468;7.146;2023-02-01T03:13:19;21.90;40.60
53314;DHT22;39202;51.468;7.146;2023-02-01T03:18:28;21.90;40.70
53314;DHT22;39202;51.468;7.146;2023-02-01T03:23:35;21.90;40.70
53314;DHT22;39202;51.468;7.146;2023-02-01T03:28:39;21.90;41.30
53314;DHT22;39202;51.468;7.146;2023-02-01T03:33:44;21.90;40.70
53314;DHT22;39202;51.468;7.146;2023-02-01T03:38:50;21.90;40.70
53314;DHT22;39202;51.468;7.146;2023-02-01T03:43:58;21.90;40.70
53314;DHT22;39202;51.468;7.146;2023-02-01T03:49:03;21.90;40.70
53314;DHT22;39202;51.468;7.146;2023-02-01T03:54:11;21.80;40.60
53314;DHT22;39202;51.468;7.146;2023-02-01T03:59:14;21.80;40.70
53314;DHT22;39202;51.468;7.146;2023-02-01T04:04:16;21.80;40.70
53314;DHT22;39202;51.468;7.146;2023-02-01T04:09:22;21.80;40.70
53314;DHT22;39202;51.468;7.146;2023-02-01T04:14:24;21.80;40.70
53314;DHT22;39202;51.468;7.146;2023-02-01T04:19:25;21.80;40.70
53314;DHT22;39202;51.468;7.146;2023-02-01T04:24:28;21.70;40.60
53314;DHT22;39202;51.468;7.146;2023-02-01T04:29:30;21.70;41.30
53314;DHT22;39202;51.468;7.146;2023-02-01T04:34:32;21.70;40.70
53314;DHT22;39202;51.468;7.146;2023-02-01T04:39:35;21.70;40.70
53314;DHT22;39202;51.468;7.146;2023-02-01T04:44:37;21.70;40.70
53314;DHT22;39202;51.468;7.146;2023-02-01T04:49:40;21.70;40.60
53314;DHT22;39202;51.468;7.146;2023-02-01T04:54:43;21.70;40.60
53314;DHT22;39202;51.468;7.146;2023-02-01T04:59:44;21.70;40.60
53314;DHT22;39202;51.468;7.146;2023-02-01T05:04:46;21.70;40.60
53314;DHT22;39202;51.468;7.146;2023-02-01T05:09:49;21.70;40.70
53314;DHT22;39202;51.468;7.146;2023-02-01T05:14:51;21.70;40.70
53314;DHT22;39202;51.468;7.146;2023-02-01T05:19:53;21.60;40.70
53314;DHT22;39202;51.468;7.146;2023-02-01T05:24:56;21.60;40.80
53314;DHT22;39202;51.468;7.146;2023-02-01T05:29:58;21.70;40.80
53314;DHT22;39202;51.468;7.146;2023-02-01T05:34:59;21.70;40.80
53314;DHT22;39202;51.468;7.146;2023-02-01T05:40:03;21.70;41.40
53314;DHT22;39202;51.468;7.146;2023-02-01T05:45:06;21.70;40.80
53314;DHT22;39202;51.468;7.146;2023-02-01T05:50:09;21.70;40.80
53314;DHT22;39202;51.468;7.146;2023-02-01T05:55:12;21.70;40.80
53314;DHT22;39202;51.468;7.146;2023-02-01T06:00:14;21.70;40.80
53314;DHT22;39202;51.468;7.146;2023-02-01T06:05:16;21.70;40.80
53314;DHT22;39202;51.468;7.146;2023-02-01T06:10:19;21.70;40.80
53314;DHT22;39202;51.468;7.146;2023-02-01T06:15:21;21.70;40.80
53314;DHT22;39202;51.468;7.146;2023-02-01T06:20:23;21.80;40.80
53314;DHT22;39202;51.468;7.146;2023-02-01T06:25:26;21.80;40.80
53314;DHT22;39202;51.468;7.146;2023-02-01T06:30:28;21.80;40.80
53314;DHT22;39202;51.468;7.146;2023-02-01T06:35:30;21.70;40.70
53314;DHT22;39202;51.468;7.146;2023-02-01T06:40:33;21.70;40.70
53314;DHT22;39202;51.468;7.146;2023-02-01T06:45:35;21.70;40.70
53314;DHT22;39202;51.468;7.146;2023-02-01T06:50:37;21.80;40.70
53314;DHT22;39202;51.468;7.146;2023-02-01T06:55:40;21.80;40.70
53314;DHT22;39202;51.468;7.146;2023-02-01T07:00:42;21.70;40.70
53314;DHT22;39202;51.468;7.146;2023-02-01T07:05:44;21.80;40.70
53314;DHT22;39202;51.468;7.146;2023-02-01T07:10:47;21.70;40.70
53314;DHT22;39202;51.468;7.146;2023-02-01T07:15:48;21.70;40.40
53314;DHT22;39202;51.468;7.146;2023-02-01T07:20:50;21.70;40.20
53314;DHT22;39202;51.468;7.146;2023-02-01T07:25:58;21.70;40.40
53314;DHT22;39202;51.468;7.146;2023-02-01T07:31:04;21.70;40.70
53314;DHT22;39202;51.468;7.146;2023-02-01T07:36:08;21.70;40.80
53314;DHT22;39202;51.468;7.146;2023-02-01T07:41:13;21.80;41.00
53314;DHT22;39202;51.468;7.146;2023-02-01T07:46:14;21.90;41.10
53314;DHT22;39202;51.468;7.146;2023-02-01T07:51:17;21.90;41.20
53314;DHT22;39202;51.468;7.146;2023-02-01T07:56:21;22.00;41.30
53314;DHT22;39202;51.468;7.146;2023-02-01T08:01:24;22.10;41.40
53314;DHT22;39202;51.468;7.146;2023-02-01T08:06:28;22.20;41.40
53314;DHT22;39202;51.468;7.146;2023-02-01T08:11:32;22.30;41.40
53314;DHT22;39202;51.468;7.146;2023-02-01T08:16:34;22.40;41.40
53314;DHT22;39202;51.468;7.146;2023-02-01T08:21:38;22.50;41.40
53314;DHT22;39202;51.468;7.146;2023-02-01T08:26:41;22.60;41.40
53314;DHT22;39202;51.468;7.146;2023-02-01T08:31:43;22.70;41.40
53314;DHT22;39202;51.468;7.146;2023-02-01T08:36:44;22.80;41.30
53314;DHT22;39202;51.468;7.146;2023-02-01T08:41:47;22.90;41.30
53314;DHT22;39202;51.468;7.146;2023-02-01T08:47:09;22.90;41.30
53314;DHT22;39202;51.468;7.146;2023-02-01T08:52:11;23.00;41.30
53314;DHT22;39202;51.468;7.146;2023-02-01T08:57:14;23.10;41.40
53314;DHT22;39202;51.468;7.146;2023-02-01T09:02:17;23.20;41.40
53314;DHT22;39202;51.468;7.146;2023-02-01T09:07:19;23.20;41.40
53314;DHT22;39202;51.468;7.146;2023-02-01T09:12:22;23.30;41.40
53314;DHT22;39202;51.468;7.146;2023-02-01T09:17:24;23.40;41.40
53314;DHT22;39202;51.468;7.146;2023-02-01T09:22:26;23.40;41.30
53314;DHT22;39202;51.468;7.146;2023-02-01T09:27:29;23.50;41.40
53314;DHT22;39202;51.468;7.146;2023-02-01T09:32:31;23.60;41.40
53314;DHT22;39202;51.468;7.146;2023-02-01T09:37:32;23.60;41.30
53314;DHT22;39202;51.468;7.146;2023-02-01T09:42:55;23.70;41.30
53314;DHT22;39202;51.468;7.146;2023-02-01T09:48:12;23.70;41.30
53314;DHT22;39202;51.468;7.146;2023-02-01T09:53:20;23.80;41.30
53314;DHT22;39202;51.468;7.146;2023-02-01T09:58:27;23.80;41.30
53314;DHT22;39202;51.468;7.146;2023-02-01T10:03:33;23.90;41.40
53314;DHT22;39202;51.468;7.146;2023-02-01T10:08:46;23.90;41.40
53314;DHT22;39202;51.468;7.146;2023-02-01T10:14:01;23.90;41.40
53314;DHT22;39202;51.468;7.146;2023-02-01T10:19:20;24.00;41.40
53314;DHT22;39202;51.468;7.146;2023-02-01T10:24:32;24.10;41.50
53314;DHT22;39202;51.468;7.146;2023-02-01T10:29:40;24.10;41.40
53314;DHT22;39202;51.468;7.146;2023-02-01T10:34:45;24.10;41.30
53314;DHT22;39202;51.468;7.146;2023-02-01T10:39:48;24.20;41.40
53314;DHT22;39202;51.468;7.146;2023-02-01T10:44:55;24.20;41.30
53314;DHT22;39202;51.468;7.146;2023-02-01T10:50:03;24.20;41.30
53314;DHT22;39202;51.468;7.146;2023-02-01T10:55:32;24.20;41.20
53314;DHT22;39202;51.468;7.146;2023-02-01T11:00:41;24.20;41.30
53314;DHT22;39202;51.468;7.146;2023-02-01T11:05:45;24.20;41.10
53314;DHT22;39202;51.468;7.146;2023-02-01T11:10:48;24.20;41.10
53314;DHT22;39202;51.468;7.146;2023-02-01T11:16:02;24.20;41.10
53314;DHT22;39202;51.468;7.146;2023-02-01T11:21:04;24.20;41.00
53314;DHT22;39202;51.468;7.146;2023-02-01T11:26:13;24.20;41.00
53314;DHT22;39202;51.468;7.146;2023-02-01T11:31:16;24.20;40.90
53314;DHT22;39202;51.468;7.146;2023-02-01T11:36:21;24.20;40.90
53314;DHT22;39202;51.468;7.146;2023-02-01T11:41:27;24.20;40.90
53314;DHT22;39202;51.468;7.146;2023-02-01T11:46:32;24.20;40.90
53314;DHT22;39202;51.468;7.146;2023-02-01T11:51:44;24.20;41.00
53314;DHT22;39202;51.468;7.146;2023-02-01T11:56:57;24.10;40.90
53314;DHT22;39202;51.468;7.146;2023-02-01T12:02:31;24.20;41.00
53314;DHT22;39202;51.468;7.146;2023-02-01T12:07:49;24.10;40.90
53314;DHT22;39202;51.468;7.146;2023-02-01T12:12:59;24.20;41.00
53314;DHT22;39202;51.468;7.146;2023-02-01T12:18:21;24.20;41.00
53314;DHT22;39202;51.468;7.146;2023-02-01T12:23:39;24.20;40.90
53314;DHT22;39202;51.468;7.146;2023-02-01T12:29:00;24.20;40.90
53314;DHT22;39202;51.468;7.146;2023-02-01T12:34:20;24.20;40.80
53314;DHT22;39202;51.468;7.146;2023-02-01T12:39:30;24.20;40.80
53314;DHT22;39202;51.468;7.146;2023-02-01T12:44:39;24.20;40.80
53314;DHT22;39202;51.468;7.146;2023-02-01T12:49:50;24.20;40.80
53314;DHT22;39202;51.468;7.146;2023-02-01T12:54:57;24.20;40.80
53314;DHT22;39202;51.468;7.146;2023-02-01T13:00:07;24.20;40.80
53314;DHT22;39202;51.468;7.146;2023-02-01T13:05:20;24.20;40.80
53314;DHT22;39202;51.468;7.146;2023-02-01T13:10:29;24.10;40.80
53314;DHT22;39202;51.468;7.146;2023-02-01T13:15:38;24.20;41.00
53314;DHT22;39202;51.468;7.146;2023-02-01T13:20:47;24.20;41.00
53314;DHT22;39202;51.468;7.146;2023-02-01T13:25:50;24.20;41.10
53314;DHT22;39202;51.468;7.146;2023-02-01T13:31:05;24.30;41.10
53314;DHT22;39202;51.468;7.146;2023-02-01T13:36:41;24.30;40.80
53314;DHT22;39202;51.468;7.146;2023-02-01T13:41:53;24.30;40.50
53314;DHT22;39202;51.468;7.146;2023-02-01T13:47:03;24.30;40.50
53314;DHT22;39202;51.468;7.146;2023-02-01T13:52:16;24.20;40.40
53314;DHT22;39202;51.468;7.146;2023-02-01T13:57:35;24.20;40.50
53314;DHT22;39202;51.468;7.146;2023-02-01T14:02:49;24.20;40.60
53314;DHT22;39202;51.468;7.146;2023-02-01T14:08:11;24.20;40.70
53314;DHT22;39202;51.468;7.146;2023-02-01T14:13:23;24.20;40.80
53314;DHT22;39202;51.468;7.146;2023-02-01T14:18:56;24.20;40.90
53314;DHT22;39202;51.468;7.146;2023-02-01T14:24:02;24.20;41.00
53314;DHT22;39202;51.468;7.146;2023-02-01T14:29:20;24.30;41.00
53314;DHT22;39202;51.468;7.146;2023-02-01T14:34:36;24.30;41.00
53314;DHT22;39202;51.468;7.146;2023-02-01T14:39:56;24.30;41.10
53314;DHT22;39202;51.468;7.146;2023-02-01T14:50:38;24.40;41.00
53314;DHT22;39202;51.468;7.146;2023-02-01T14:55:44;24.40;40.60
53314;DHT22;39202;51.468;7.146;2023-02-01T15:00:52;24.30;40.30
53314;DHT22;39202;51.468;7.146;2023-02-01T15:05:58;24.30;40.30
53314;DHT22;39202;51.468;7.146;2023-02-01T15:11:08;24.30;40.40
53314;DHT22;39202;51.468;7.146;2023-02-01T15:16:14;24.20;40.50
53314;DHT22;39202;51.468;7.146;2023-02-01T15:21:18;24.20;40.60
53314;DHT22;39202;51.468;7.146;2023-02-01T15:26:29;24.20;40.70
53314;DHT22;39202;51.468;7.146;2023-02-01T15:31:34;24.20;40.70
53314;DHT22;39202;51.468;7.146;2023-02-01T15:36:36;24.20;40.80
53314;DHT22;39202;51.468;7.146;2023-02-01T15:41:42;24.20;40.90
53314;DHT22;39202;51.468;7.146;2023-02-01T15:46:46;24.20;41.00
53314;DHT22;39202;51.468;7.146;2023-02-01T15:51:48;24.20;41.00
53314;DHT22;39202;51.468;7.146;2023-02-01T15:56:54;24.30;41.10
53314;DHT22;39202;51.468;7.146;2023-02-01T16:01:56;24.30;41.70
53314;DHT22;39202;51.468;7.146;2023-02-01T16:06:59;24.30;41.10
53314;DHT22;39202;51.468;7.146;2023-02-01T16:12:23;24.30;41.10
53314;DHT22;39202;51.468;7.146;2023-02-01T16:17:25;24.40;41.30
53314;DHT22;39202;51.468;7.146;2023-02-01T16:22:27;24.40;41.20
53314;DHT22;39202;51.468;7.146;2023-02-01T16:27:30;24.40;41.10
53314;DHT22;39202;51.468;7.146;2023-02-01T16:32:31;24.40;41.20
53314;DHT22;39202;51.468;7.146;2023-02-01T16:37:34;24.40;41.20
53314;DHT22;39202;51.468;7.146;2023-02-01T16:42:38;24.40;41.00
53314;DHT22;39202;51.468;7.146;2023-02-01T16:47:43;24.30;40.80
53314;DHT22;39202;51.468;7.146;2023-02-01T16:52:46;24.30;40.80
53314;DHT22;39202;51.468;7.146;2023-02-01T16:57:50;24.30;40.80
53314;DHT22;39202;51.468;7.146;2023-02-01T17:02:52;24.30;40.80
53314;DHT22;39202;51.468;7.146;2023-02-01T17:07:55;24.20;40.70
53314;DHT22;39202;51.468;7.146;2023-02-01T17:12:59;24.20;40.70
53314;DHT22;39202;51.468;7.146;2023-02-01T17:18:01;24.10;40.60
53314;DHT22;39202;51.468;7.146;2023-02-01T17:23:05;24.10;40.70
53314;DHT22;39202;51.468;7.146;2023-02-01T17:28:08;24.10;40.70
53314;DHT22;39202;51.468;7.146;2023-02-01T17:33:19;24.00;40.70
53314;DHT22;39202;51.468;7.146;2023-02-01T17:38:21;24.00;40.70
53314;DHT22;39202;51.468;7.146;2023-02-01T17:43:25;23.90;40.60
53314;DHT22;39202;51.468;7.146;2023-02-01T17:48:27;23.90;40.60
53314;DHT22;39202;51.468;7.146;2023-02-01T17:53:29;23.90;40.60
53314;DHT22;39202;51.468;7.146;2023-02-01T17:58:32;23.80;40.60
53314;DHT22;39202;51.468;7.146;2023-02-01T18:03:34;23.80;40.70
53314;DHT22;39202;51.468;7.146;2023-02-01T18:08:36;23.80;40.60
53314;DHT22;39202;51.468;7.146;2023-02-01T18:13:39;23.90;40.60
53314;DHT22;39202;51.468;7.146;2023-02-01T18:18:41;23.70;40.60
53314;DHT22;39202;51.468;7.146;2023-02-01T18:23:43;23.60;40.60
53314;DHT22;39202;51.468;7.146;2023-02-01T18:28:46;23.60;40.50
53314;DHT22;39202;51.468;7.146;2023-02-01T18:33:48;23.60;40.50
53314;DHT22;39202;51.468;7.146;2023-02-01T18:38:51;23.60;40.50
53314;DHT22;39202;51.468;7.146;2023-02-01T18:43:55;23.50;40.50
53314;DHT22;39202;51.468;7.146;2023-02-01T18:48:56;23.50;40.50
53314;DHT22;39202;51.468;7.146;2023-02-01T18:53:58;23.40;40.60
53314;DHT22;39202;51.468;7.146;2023-02-01T18:59:01;24.20;41.00
53314;DHT22;39202;51.468;7.146;2023-02-01T19:04:03;23.40;40.70
53314;DHT22;39202;51.468;7.146;2023-02-01T19:09:05;23.30;40.60
53314;DHT22;39202;51.468;7.146;2023-02-01T19:14:08;23.30;40.60
53314;DHT22;39202;51.468;7.146;2023-02-01T19:19:10;23.20;40.70
53314;DHT22;39202;51.468;7.146;2023-02-01T19:24:11;23.20;40.70
53314;DHT22;39202;51.468;7.146;2023-02-01T19:29:14;23.20;40.70
53314;DHT22;39202;51.468;7.146;2023-02-01T19:34:16;23.10;40.70
53314;DHT22;39202;51.468;7.146;2023-02-01T19:39:18;23.10;40.70
53314;DHT22;39202;51.468;7.146;2023-02-01T19:44:22;23.10;40.60
53314;DHT22;39202;51.468;7.146;2023-02-01T19:49:24;23.00;40.70
53314;DHT22;39202;51.468;7.146;2023-02-01T19:54:26;23.00;40.70
53314;DHT22;39202;51.468;7.146;2023-02-01T19:59:29;23.00;40.70
53314;DHT22;39202;51.468;7.146;2023-02-01T20:04:31;23.00;40.70
53314;DHT22;39202;51.468;7.146;2023-02-01T20:09:33;22.90;40.70
53314;DHT22;39202;51.468;7.146;2023-02-01T20:14:38;22.90;40.70
53314;DHT22;39202;51.468;7.146;2023-02-01T20:19:40;22.90;40.70
53314;DHT22;39202;51.468;7.146;2023-02-01T20:24:42;22.80;40.70
53314;DHT22;39202;51.468;7.146;2023-02-01T20:29:45;22.80;40.70
53314;DHT22;39202;51.468;7.146;2023-02-01T20:34:46;22.80;40.70
53314;DHT22;39202;51.468;7.146;2023-02-01T20:39:52;22.80;40.80
53314;DHT22;39202;51.468;7.146;2023-02-01T20:44:55;22.80;40.80
53314;DHT22;39202;51.468;7.146;2023-02-01T20:49:57;22.70;40.70
53314;DHT22;39202;51.468;7.146;2023-02-01T20:54:59;22.70;40.70
53314;DHT22;39202;51.468;7.146;2023-02-01T21:00:03;22.70;40.70
53314;DHT22;39202;51.468;7.146;2023-02-01T21:05:08;22.70;40.80
53314;DHT22;39202;51.468;7.146;2023-02-01T21:10:10;22.60;40.80
53314;DHT22;39202;51.468;7.146;2023-02-01T21:15:13;22.60;40.80
53314;DHT22;39202;51.468;7.146;2023-02-01T21:20:15;22.60;40.80
53314;DHT22;39202;51.468;7.146;2023-02-01T21:25:17;22.50;40.70
53314;DHT22;39202;51.468;7.146;2023-02-01T21:30:20;22.60;40.80
53314;DHT22;39202;51.468;7.146;2023-02-01T21:35:22;22.50;40.80
53314;DHT22;39202;51.468;7.146;2023-02-01T21:40:24;22.50;40.80
53314;DHT22;39202;51.468;7.146;2023-02-01T21:45:27;22.50;40.80
53314;DHT22;39202;51.468;7.146;2023-02-01T21:50:29;22.50;40.80
53314;DHT22;39202;51.468;7.146;2023-02-01T21:55:31;22.50;40.80
53314;DHT22;39202;51.468;7.146;2023-02-01T22:00:34;22.50;40.80
53314;DHT22;39202;51.468;7.146;2023-02-01T22:05:35;22.50;40.80
53314;DHT22;39202;51.468;7.146;2023-02-01T22:10:37;22.40;40.80
53314;DHT22;39202;51.468;7.146;2023-02-01T22:15:40;22.40;40.80
53314;DHT22;39202;51.468;7.146;2023-02-01T22:20:42;22.40;40.80
53314;DHT22;39202;51.468;7.146;2023-02-01T22:25:44;22.40;40.80
53314;DHT22;39202;51.468;7.146;2023-02-01T22:30:47;22.40;40.80
53314;DHT22;39202;51.468;7.146;2023-02-01T22:35:49;22.40;40.90
53314;DHT22;39202;51.468;7.146;2023-02-01T22:40:53;22.30;40.80
53314;DHT22;39202;51.468;7.146;2023-02-01T22:45:59;22.30;40.80
53314;DHT22;39202;51.468;7.146;2023-02-01T22:51:02;22.30;40.90
53314;DHT22;39202;51.468;7.146;2023-02-01T22:56:05;22.30;40.80
53314;DHT22;39202;51.468;7.146;2023-02-01T23:01:09;22.30;40.80
53314;DHT22;39202;51.468;7.146;2023-02-01T23:06:11;22.30;40.90
53314;DHT22;39202;51.468;7.146;2023-02-01T23:11:17;22.30;40.80
53314;DHT22;39202;51.468;7.146;2023-02-01T23:16:20;22.20;40.80
53314;DHT22;39202;51.468;7.146;2023-02-01T23:21:22;22.20;40.80
53314;DHT22;39202;51.468;7.146;2023-02-01T23:26:26;22.20;40.80
53314;DHT22;39202;51.468;7.146;2023-02-01T23:31:31;22.20;40.90
53314;DHT22;39202;51.468;7.146;2023-02-01T23:36:33;22.20;40.80
53314;DHT22;39202;51.468;7.146;2023-02-01T23:41:35;22.20;40.90
53314;DHT22;39202;51.468;7.146;2023-02-01T23:46:39;22.10;40.80
53314;DHT22;39202;51.468;7.146;2023-02-01T23:51:44;22.10;40.80
53314;DHT22;39202;51.468;7.146;2023-02-01T23:56:47;22.10;40.90
